Napa, California
Current Conditions -  °F | °C
As of 2:54 PM on Friday 28 Nov 2014 (Local Time) from KAPC Reporting Station
Clear Clear  
Wind Chill: 62°   Ceiling: Unl
Heat Index: 62°   Visibility: 10mi
Dew Point: 51°   Wind: 5mph
Humidity: 67%   Direction: 250°WSW
Pressure: 29.92"   Gusts: NA
Location:  38.3°N, 122.28°W
Report Text: KAPC 282254Z AUTO 25004KT 10SM CLR 17/11 A2992 RMK AO2 SLP121 T01670106
Loading
Personal Weather Stations






























Interactive Weather Map New forecast layout! Learn more

10-Day Weather Forecast

Advertisements
Track Severe Weather on mobile